sensor_id;sensor_type;location;lat;lon;timestamp;P1;durP1;ratioP1;P2;durP2;ratioP2
8978;SDS011;4524;51.364;5.448;2022-11-18T00:00:05;3.93;;;2.80;;
8978;SDS011;4524;51.364;5.448;2022-11-18T00:02:34;5.33;;;2.73;;
8978;SDS011;4524;51.364;5.448;2022-11-18T00:05:02;4.30;;;2.37;;
8978;SDS011;4524;51.364;5.448;2022-11-18T00:07:31;7.57;;;2.90;;
8978;SDS011;4524;51.364;5.448;2022-11-18T00:09:59;6.63;;;2.73;;
8978;SDS011;4524;51.364;5.448;2022-11-18T00:12:27;7.23;;;3.20;;
8978;SDS011;4524;51.364;5.448;2022-11-18T00:15:13;6.63;;;2.47;;
8978;SDS011;4524;51.364;5.448;2022-11-18T00:17:41;5.53;;;2.40;;
8978;SDS011;4524;51.364;5.448;2022-11-18T00:20:09;7.07;;;2.53;;
8978;SDS011;4524;51.364;5.448;2022-11-18T00:22:38;4.97;;;2.30;;
8978;SDS011;4524;51.364;5.448;2022-11-18T00:25:06;4.60;;;2.40;;
8978;SDS011;4524;51.364;5.448;2022-11-18T00:27:34;3.73;;;2.20;;
8978;SDS011;4524;51.364;5.448;2022-11-18T00:30:03;4.77;;;2.67;;
8978;SDS011;4524;51.364;5.448;2022-11-18T00:32:31;4.40;;;2.60;;
8978;SDS011;4524;51.364;5.448;2022-11-18T00:34:59;4.40;;;2.23;;
8978;SDS011;4524;51.364;5.448;2022-11-18T00:37:27;4.33;;;2.33;;
8978;SDS011;4524;51.364;5.448;2022-11-18T00:39:56;6.37;;;2.33;;
8978;SDS011;4524;51.364;5.448;2022-11-18T00:42:24;5.03;;;2.60;;
8978;SDS011;4524;51.364;5.448;2022-11-18T00:45:09;5.00;;;2.40;;
8978;SDS011;4524;51.364;5.448;2022-11-18T00:47:37;4.17;;;2.03;;
8978;SDS011;4524;51.364;5.448;2022-11-18T00:50:05;6.37;;;2.57;;
8978;SDS011;4524;51.364;5.448;2022-11-18T00:52:33;5.27;;;2.23;;
8978;SDS011;4524;51.364;5.448;2022-11-18T00:55:03;4.83;;;2.10;;
8978;SDS011;4524;51.364;5.448;2022-11-18T00:57:31;3.50;;;1.93;;
8978;SDS011;4524;51.364;5.448;2022-11-18T00:59:59;2.93;;;1.80;;
8978;SDS011;4524;51.364;5.448;2022-11-18T01:02:27;5.63;;;2.00;;
8978;SDS011;4524;51.364;5.448;2022-11-18T01:04:55;4.27;;;2.13;;
8978;SDS011;4524;51.364;5.448;2022-11-18T01:07:23;3.83;;;1.90;;
8978;SDS011;4524;51.364;5.448;2022-11-18T01:09:51;3.73;;;2.00;;
8978;SDS011;4524;51.364;5.448;2022-11-18T01:12:20;3.53;;;1.63;;
8978;SDS011;4524;51.364;5.448;2022-11-18T01:15:06;5.33;;;1.80;;
8978;SDS011;4524;51.364;5.448;2022-11-18T01:17:35;2.60;;;1.80;;
8978;SDS011;4524;51.364;5.448;2022-11-18T01:20:03;4.00;;;1.90;;
8978;SDS011;4524;51.364;5.448;2022-11-18T01:22:31;4.50;;;1.60;;
8978;SDS011;4524;51.364;5.448;2022-11-18T01:24:59;4.27;;;1.80;;
8978;SDS011;4524;51.364;5.448;2022-11-18T01:27:28;3.87;;;1.77;;
8978;SDS011;4524;51.364;5.448;2022-11-18T01:29:57;3.07;;;1.60;;
8978;SDS011;4524;51.364;5.448;2022-11-18T01:32:26;6.77;;;2.10;;
8978;SDS011;4524;51.364;5.448;2022-11-18T01:34:54;4.23;;;1.90;;
8978;SDS011;4524;51.364;5.448;2022-11-18T01:37:22;4.77;;;1.80;;
8978;SDS011;4524;51.364;5.448;2022-11-18T01:39:50;4.17;;;1.70;;
8978;SDS011;4524;51.364;5.448;2022-11-18T01:42:18;5.40;;;2.17;;
8978;SDS011;4524;51.364;5.448;2022-11-18T01:44:56;3.33;;;1.60;;
8978;SDS011;4524;51.364;5.448;2022-11-18T01:47:30;3.90;;;1.70;;
8978;SDS011;4524;51.364;5.448;2022-11-18T01:50:02;5.87;;;2.17;;
8978;SDS011;4524;51.364;5.448;2022-11-18T01:52:31;2.70;;;1.87;;
8978;SDS011;4524;51.364;5.448;2022-11-18T01:55:02;4.17;;;2.10;;
8978;SDS011;4524;51.364;5.448;2022-11-18T01:57:34;3.60;;;1.70;;
8978;SDS011;4524;51.364;5.448;2022-11-18T02:00:04;3.43;;;1.70;;
8978;SDS011;4524;51.364;5.448;2022-11-18T02:02:34;3.73;;;1.80;;
8978;SDS011;4524;51.364;5.448;2022-11-18T02:05:04;4.03;;;1.80;;
8978;SDS011;4524;51.364;5.448;2022-11-18T02:07:34;5.13;;;2.00;;
8978;SDS011;4524;51.364;5.448;2022-11-18T02:10:06;3.53;;;1.80;;
8978;SDS011;4524;51.364;5.448;2022-11-18T02:12:35;5.00;;;1.77;;
8978;SDS011;4524;51.364;5.448;2022-11-18T02:15:06;4.33;;;1.97;;
8978;SDS011;4524;51.364;5.448;2022-11-18T02:17:37;5.27;;;1.93;;
8978;SDS011;4524;51.364;5.448;2022-11-18T02:20:23;4.07;;;1.80;;
8978;SDS011;4524;51.364;5.448;2022-11-18T02:26:10;4.77;;;1.70;;
8978;SDS011;4524;51.364;5.448;2022-11-18T02:29:02;7.00;;;2.10;;
8978;SDS011;4524;51.364;5.448;2022-11-18T02:31:34;3.60;;;1.97;;
8978;SDS011;4524;51.364;5.448;2022-11-18T02:34:13;4.30;;;1.67;;
8978;SDS011;4524;51.364;5.448;2022-11-18T02:36:49;4.10;;;2.10;;
8978;SDS011;4524;51.364;5.448;2022-11-18T02:39:23;2.93;;;2.00;;
8978;SDS011;4524;51.364;5.448;2022-11-18T02:41:56;4.37;;;2.00;;
8978;SDS011;4524;51.364;5.448;2022-11-18T02:44:27;3.63;;;1.83;;
8978;SDS011;4524;51.364;5.448;2022-11-18T02:46:58;5.13;;;1.77;;
8978;SDS011;4524;51.364;5.448;2022-11-18T02:49:30;3.63;;;1.93;;
8978;SDS011;4524;51.364;5.448;2022-11-18T02:52:02;3.17;;;1.83;;
8978;SDS011;4524;51.364;5.448;2022-11-18T02:54:32;3.00;;;1.63;;
8978;SDS011;4524;51.364;5.448;2022-11-18T02:57:03;3.93;;;1.90;;
8978;SDS011;4524;51.364;5.448;2022-11-18T02:59:32;5.27;;;2.00;;
8978;SDS011;4524;51.364;5.448;2022-11-18T03:02:00;5.13;;;1.90;;
8978;SDS011;4524;51.364;5.448;2022-11-18T03:04:28;3.03;;;1.90;;
8978;SDS011;4524;51.364;5.448;2022-11-18T03:07:00;3.00;;;1.73;;
8978;SDS011;4524;51.364;5.448;2022-11-18T03:09:33;5.40;;;2.00;;
8978;SDS011;4524;51.364;5.448;2022-11-18T03:12:09;5.90;;;2.03;;
8978;SDS011;4524;51.364;5.448;2022-11-18T03:14:46;5.87;;;2.30;;
8978;SDS011;4524;51.364;5.448;2022-11-18T03:17:24;2.60;;;1.90;;
8978;SDS011;4524;51.364;5.448;2022-11-18T03:20:08;2.77;;;1.90;;
8978;SDS011;4524;51.364;5.448;2022-11-18T03:22:43;5.13;;;2.10;;
8978;SDS011;4524;51.364;5.448;2022-11-18T03:25:16;3.37;;;1.93;;
8978;SDS011;4524;51.364;5.448;2022-11-18T03:27:48;8.30;;;2.00;;
8978;SDS011;4524;51.364;5.448;2022-11-18T03:30:25;5.70;;;1.80;;
8978;SDS011;4524;51.364;5.448;2022-11-18T03:32:56;3.27;;;1.90;;
8978;SDS011;4524;51.364;5.448;2022-11-18T03:35:28;4.93;;;1.93;;
8978;SDS011;4524;51.364;5.448;2022-11-18T03:38:00;4.77;;;2.10;;
8978;SDS011;4524;51.364;5.448;2022-11-18T03:40:32;5.53;;;2.07;;
8978;SDS011;4524;51.364;5.448;2022-11-18T03:43:04;3.90;;;1.93;;
8978;SDS011;4524;51.364;5.448;2022-11-18T03:45:38;4.60;;;1.97;;
8978;SDS011;4524;51.364;5.448;2022-11-18T03:48:09;2.87;;;2.03;;
8978;SDS011;4524;51.364;5.448;2022-11-18T03:50:41;5.57;;;1.93;;
8978;SDS011;4524;51.364;5.448;2022-11-18T03:53:13;4.27;;;1.80;;
8978;SDS011;4524;51.364;5.448;2022-11-18T03:55:44;5.37;;;2.00;;
8978;SDS011;4524;51.364;5.448;2022-11-18T03:58:17;3.23;;;1.97;;
8978;SDS011;4524;51.364;5.448;2022-11-18T04:00:53;5.03;;;1.83;;
8978;SDS011;4524;51.364;5.448;2022-11-18T04:03:24;4.83;;;2.10;;
8978;SDS011;4524;51.364;5.448;2022-11-18T04:05:53;2.63;;;2.00;;
8978;SDS011;4524;51.364;5.448;2022-11-18T04:08:28;5.67;;;1.97;;
8978;SDS011;4524;51.364;5.448;2022-11-18T04:11:00;4.50;;;1.87;;
8978;SDS011;4524;51.364;5.448;2022-11-18T04:13:34;3.00;;;2.00;;
8978;SDS011;4524;51.364;5.448;2022-11-18T04:16:05;4.77;;;2.10;;
8978;SDS011;4524;51.364;5.448;2022-11-18T04:18:34;3.10;;;1.90;;
8978;SDS011;4524;51.364;5.448;2022-11-18T04:21:02;8.20;;;2.13;;
8978;SDS011;4524;51.364;5.448;2022-11-18T04:23:31;5.07;;;2.00;;
8978;SDS011;4524;51.364;5.448;2022-11-18T04:25:58;5.20;;;2.10;;
8978;SDS011;4524;51.364;5.448;2022-11-18T04:28:26;5.67;;;2.20;;
8978;SDS011;4524;51.364;5.448;2022-11-18T04:30:54;5.53;;;2.23;;
8978;SDS011;4524;51.364;5.448;2022-11-18T04:33:23;4.87;;;2.03;;
8978;SDS011;4524;51.364;5.448;2022-11-18T04:35:51;3.87;;;2.10;;
8978;SDS011;4524;51.364;5.448;2022-11-18T04:38:20;4.00;;;1.87;;
8978;SDS011;4524;51.364;5.448;2022-11-18T04:40:48;2.70;;;2.03;;
8978;SDS011;4524;51.364;5.448;2022-11-18T04:43:16;3.27;;;2.03;;
8978;SDS011;4524;51.364;5.448;2022-11-18T04:45:44;4.07;;;1.93;;
8978;SDS011;4524;51.364;5.448;2022-11-18T04:48:12;5.77;;;2.20;;
8978;SDS011;4524;51.364;5.448;2022-11-18T04:50:42;4.23;;;2.50;;
8978;SDS011;4524;51.364;5.448;2022-11-18T04:53:10;2.67;;;1.93;;
8978;SDS011;4524;51.364;5.448;2022-11-18T04:55:38;4.17;;;2.37;;
8978;SDS011;4524;51.364;5.448;2022-11-18T04:58:06;3.23;;;2.10;;
8978;SDS011;4524;51.364;5.448;2022-11-18T05:00:34;4.07;;;2.20;;
8978;SDS011;4524;51.364;5.448;2022-11-18T05:03:02;5.00;;;2.10;;
8978;SDS011;4524;51.364;5.448;2022-11-18T05:05:30;6.47;;;2.10;;
8978;SDS011;4524;51.364;5.448;2022-11-18T05:08:01;2.90;;;2.43;;
8978;SDS011;4524;51.364;5.448;2022-11-18T05:10:29;4.57;;;2.23;;
8978;SDS011;4524;51.364;5.448;2022-11-18T05:12:57;6.47;;;2.20;;
8978;SDS011;4524;51.364;5.448;2022-11-18T05:15:24;4.47;;;2.40;;
8978;SDS011;4524;51.364;5.448;2022-11-18T05:17:52;3.23;;;2.17;;
8978;SDS011;4524;51.364;5.448;2022-11-18T05:20:20;5.50;;;2.87;;
8978;SDS011;4524;51.364;5.448;2022-11-18T05:22:48;4.27;;;2.37;;
8978;SDS011;4524;51.364;5.448;2022-11-18T05:25:17;5.57;;;2.57;;
8978;SDS011;4524;51.364;5.448;2022-11-18T05:27:45;2.90;;;2.10;;
8978;SDS011;4524;51.364;5.448;2022-11-18T05:30:13;3.03;;;2.47;;
8978;SDS011;4524;51.364;5.448;2022-11-18T05:32:40;4.90;;;2.63;;
8978;SDS011;4524;51.364;5.448;2022-11-18T05:35:08;4.73;;;2.50;;
8978;SDS011;4524;51.364;5.448;2022-11-18T05:37:36;4.40;;;2.60;;
8978;SDS011;4524;51.364;5.448;2022-11-18T05:40:05;5.80;;;2.50;;
8978;SDS011;4524;51.364;5.448;2022-11-18T05:42:35;5.43;;;2.57;;
8978;SDS011;4524;51.364;5.448;2022-11-18T05:45:20;4.57;;;2.40;;
8978;SDS011;4524;51.364;5.448;2022-11-18T05:47:48;6.57;;;2.80;;
8978;SDS011;4524;51.364;5.448;2022-11-18T05:50:30;5.80;;;2.73;;
8978;SDS011;4524;51.364;5.448;2022-11-18T05:52:58;4.37;;;2.77;;
8978;SDS011;4524;51.364;5.448;2022-11-18T05:55:27;4.63;;;3.00;;
8978;SDS011;4524;51.364;5.448;2022-11-18T05:58:01;5.77;;;2.87;;
8978;SDS011;4524;51.364;5.448;2022-11-18T06:00:29;4.17;;;3.03;;
8978;SDS011;4524;51.364;5.448;2022-11-18T06:02:58;4.63;;;2.90;;
8978;SDS011;4524;51.364;5.448;2022-11-18T06:05:27;5.03;;;2.70;;
8978;SDS011;4524;51.364;5.448;2022-11-18T06:07:55;5.00;;;2.63;;
8978;SDS011;4524;51.364;5.448;2022-11-18T06:10:25;4.17;;;2.53;;
8978;SDS011;4524;51.364;5.448;2022-11-18T06:12:57;6.63;;;2.60;;
8978;SDS011;4524;51.364;5.448;2022-11-18T06:15:30;5.57;;;2.90;;
8978;SDS011;4524;51.364;5.448;2022-11-18T06:18:02;3.70;;;2.70;;
8978;SDS011;4524;51.364;5.448;2022-11-18T06:20:34;7.43;;;2.90;;
8978;SDS011;4524;51.364;5.448;2022-11-18T06:23:04;4.80;;;2.70;;
8978;SDS011;4524;51.364;5.448;2022-11-18T06:25:32;4.10;;;2.80;;
8978;SDS011;4524;51.364;5.448;2022-11-18T06:28:01;6.83;;;2.97;;
8978;SDS011;4524;51.364;5.448;2022-11-18T06:30:29;5.03;;;2.60;;
8978;SDS011;4524;51.364;5.448;2022-11-18T06:32:57;4.10;;;2.93;;
8978;SDS011;4524;51.364;5.448;2022-11-18T06:35:25;7.17;;;2.90;;
8978;SDS011;4524;51.364;5.448;2022-11-18T06:37:53;4.90;;;3.20;;
8978;SDS011;4524;51.364;5.448;2022-11-18T06:40:21;8.13;;;3.10;;
8978;SDS011;4524;51.364;5.448;2022-11-18T06:42:49;7.67;;;2.80;;
8978;SDS011;4524;51.364;5.448;2022-11-18T06:45:36;5.40;;;2.57;;
8978;SDS011;4524;51.364;5.448;2022-11-18T06:48:04;4.37;;;2.80;;
8978;SDS011;4524;51.364;5.448;2022-11-18T06:50:32;5.40;;;2.90;;
8978;SDS011;4524;51.364;5.448;2022-11-18T06:53:00;6.23;;;3.27;;
8978;SDS011;4524;51.364;5.448;2022-11-18T06:55:28;5.60;;;3.10;;
8978;SDS011;4524;51.364;5.448;2022-11-18T06:57:56;6.33;;;3.10;;
8978;SDS011;4524;51.364;5.448;2022-11-18T07:00:24;5.13;;;2.90;;
8978;SDS011;4524;51.364;5.448;2022-11-18T07:02:53;9.23;;;3.00;;
8978;SDS011;4524;51.364;5.448;2022-11-18T07:05:21;4.50;;;2.90;;
8978;SDS011;4524;51.364;5.448;2022-11-18T07:07:49;4.93;;;3.37;;
8978;SDS011;4524;51.364;5.448;2022-11-18T07:10:17;4.17;;;3.00;;
8978;SDS011;4524;51.364;5.448;2022-11-18T07:12:45;5.30;;;3.00;;
8978;SDS011;4524;51.364;5.448;2022-11-18T07:15:13;5.67;;;3.40;;
8978;SDS011;4524;51.364;5.448;2022-11-18T07:17:41;6.33;;;3.43;;
8978;SDS011;4524;51.364;5.448;2022-11-18T07:20:10;6.80;;;3.30;;
8978;SDS011;4524;51.364;5.448;2022-11-18T07:22:38;6.03;;;3.10;;
8978;SDS011;4524;51.364;5.448;2022-11-18T07:25:06;6.73;;;3.10;;
8978;SDS011;4524;51.364;5.448;2022-11-18T07:27:35;5.27;;;3.40;;
8978;SDS011;4524;51.364;5.448;2022-11-18T07:30:03;6.00;;;3.20;;
8978;SDS011;4524;51.364;5.448;2022-11-18T07:32:31;7.90;;;3.60;;
8978;SDS011;4524;51.364;5.448;2022-11-18T07:34:59;8.17;;;3.60;;
8978;SDS011;4524;51.364;5.448;2022-11-18T07:37:29;5.50;;;3.50;;
8978;SDS011;4524;51.364;5.448;2022-11-18T07:39:57;6.43;;;3.30;;
8978;SDS011;4524;51.364;5.448;2022-11-18T07:42:25;4.10;;;3.27;;
8978;SDS011;4524;51.364;5.448;2022-11-18T07:44:53;5.50;;;3.70;;
8978;SDS011;4524;51.364;5.448;2022-11-18T07:47:20;9.33;;;3.80;;
8978;SDS011;4524;51.364;5.448;2022-11-18T07:49:48;6.30;;;3.30;;
8978;SDS011;4524;51.364;5.448;2022-11-18T07:52:16;7.37;;;3.77;;
8978;SDS011;4524;51.364;5.448;2022-11-18T07:54:45;6.47;;;3.50;;
8978;SDS011;4524;51.364;5.448;2022-11-18T07:57:13;7.93;;;3.57;;
8978;SDS011;4524;51.364;5.448;2022-11-18T07:59:41;5.80;;;3.27;;
8978;SDS011;4524;51.364;5.448;2022-11-18T08:02:10;4.07;;;3.33;;
8978;SDS011;4524;51.364;5.448;2022-11-18T08:04:38;4.57;;;3.50;;
8978;SDS011;4524;51.364;5.448;2022-11-18T08:07:07;8.57;;;3.80;;
8978;SDS011;4524;51.364;5.448;2022-11-18T08:09:36;4.83;;;3.40;;
8978;SDS011;4524;51.364;5.448;2022-11-18T08:12:05;5.77;;;3.43;;
8978;SDS011;4524;51.364;5.448;2022-11-18T08:14:33;6.03;;;3.80;;
8978;SDS011;4524;51.364;5.448;2022-11-18T08:17:01;7.93;;;3.80;;
8978;SDS011;4524;51.364;5.448;2022-11-18T08:19:29;6.30;;;3.30;;
8978;SDS011;4524;51.364;5.448;2022-11-18T08:21:57;5.10;;;3.27;;
8978;SDS011;4524;51.364;5.448;2022-11-18T08:24:25;6.53;;;3.57;;
8978;SDS011;4524;51.364;5.448;2022-11-18T08:26:53;6.43;;;3.60;;
8978;SDS011;4524;51.364;5.448;2022-11-18T08:29:22;5.40;;;3.40;;
8978;SDS011;4524;51.364;5.448;2022-11-18T08:31:51;4.90;;;3.17;;
8978;SDS011;4524;51.364;5.448;2022-11-18T08:34:19;6.73;;;3.53;;
8978;SDS011;4524;51.364;5.448;2022-11-18T08:36:47;5.43;;;3.37;;
8978;SDS011;4524;51.364;5.448;2022-11-18T08:39:15;5.60;;;3.10;;
8978;SDS011;4524;51.364;5.448;2022-11-18T08:41:44;4.93;;;3.03;;
8978;SDS011;4524;51.364;5.448;2022-11-18T08:44:13;5.80;;;3.27;;
8978;SDS011;4524;51.364;5.448;2022-11-18T08:46:43;5.43;;;3.17;;
8978;SDS011;4524;51.364;5.448;2022-11-18T08:49:11;6.37;;;3.30;;
8978;SDS011;4524;51.364;5.448;2022-11-18T08:51:40;5.63;;;3.40;;
8978;SDS011;4524;51.364;5.448;2022-11-18T08:54:08;6.40;;;3.63;;
8978;SDS011;4524;51.364;5.448;2022-11-18T08:56:35;5.63;;;3.60;;
8978;SDS011;4524;51.364;5.448;2022-11-18T08:59:04;6.37;;;3.27;;
8978;SDS011;4524;51.364;5.448;2022-11-18T09:01:32;8.60;;;3.40;;
8978;SDS011;4524;51.364;5.448;2022-11-18T09:04:03;5.50;;;3.47;;
8978;SDS011;4524;51.364;5.448;2022-11-18T09:06:31;3.93;;;3.27;;
8978;SDS011;4524;51.364;5.448;2022-11-18T09:09:00;7.10;;;3.50;;
8978;SDS011;4524;51.364;5.448;2022-11-18T09:11:31;6.63;;;3.23;;
8978;SDS011;4524;51.364;5.448;2022-11-18T09:14:00;5.53;;;3.40;;
8978;SDS011;4524;51.364;5.448;2022-11-18T09:16:48;8.67;;;3.67;;
8978;SDS011;4524;51.364;5.448;2022-11-18T09:19:17;5.90;;;3.20;;
8978;SDS011;4524;51.364;5.448;2022-11-18T09:22:05;5.53;;;3.00;;
8978;SDS011;4524;51.364;5.448;2022-11-18T09:24:34;5.73;;;2.90;;
8978;SDS011;4524;51.364;5.448;2022-11-18T09:27:04;7.23;;;3.10;;
8978;SDS011;4524;51.364;5.448;2022-11-18T09:29:40;4.63;;;2.60;;
8978;SDS011;4524;51.364;5.448;2022-11-18T09:32:08;6.10;;;2.90;;
8978;SDS011;4524;51.364;5.448;2022-11-18T09:34:37;8.67;;;3.63;;
8978;SDS011;4524;51.364;5.448;2022-11-18T09:37:05;4.33;;;2.70;;
8978;SDS011;4524;51.364;5.448;2022-11-18T09:39:33;7.77;;;2.90;;
8978;SDS011;4524;51.364;5.448;2022-11-18T09:42:06;6.80;;;3.23;;
8978;SDS011;4524;51.364;5.448;2022-11-18T09:44:48;5.00;;;2.80;;
8978;SDS011;4524;51.364;5.448;2022-11-18T09:47:37;6.67;;;2.73;;
8978;SDS011;4524;51.364;5.448;2022-11-18T09:50:09;4.47;;;2.70;;
8978;SDS011;4524;51.364;5.448;2022-11-18T09:53:01;4.97;;;2.67;;
8978;SDS011;4524;51.364;5.448;2022-11-18T09:55:35;4.03;;;2.70;;
8978;SDS011;4524;51.364;5.448;2022-11-18T09:58:05;7.83;;;3.03;;
8978;SDS011;4524;51.364;5.448;2022-11-18T10:00:38;4.40;;;2.90;;
8978;SDS011;4524;51.364;5.448;2022-11-18T10:03:10;9.17;;;3.30;;
8978;SDS011;4524;51.364;5.448;2022-11-18T10:05:48;6.77;;;3.13;;
8978;SDS011;4524;51.364;5.448;2022-11-18T10:08:23;7.90;;;3.10;;
8978;SDS011;4524;51.364;5.448;2022-11-18T10:10:55;5.40;;;2.97;;
8978;SDS011;4524;51.364;5.448;2022-11-18T10:13:35;5.37;;;3.27;;
8978;SDS011;4524;51.364;5.448;2022-11-18T10:16:20;6.30;;;3.27;;
8978;SDS011;4524;51.364;5.448;2022-11-18T10:18:56;5.77;;;2.80;;
8978;SDS011;4524;51.364;5.448;2022-11-18T10:21:36;7.23;;;3.80;;
8978;SDS011;4524;51.364;5.448;2022-11-18T10:24:11;6.47;;;3.13;;
8978;SDS011;4524;51.364;5.448;2022-11-18T10:26:44;5.30;;;3.03;;
8978;SDS011;4524;51.364;5.448;2022-11-18T10:29:12;6.93;;;2.80;;
8978;SDS011;4524;51.364;5.448;2022-11-18T10:31:51;4.97;;;2.80;;
8978;SDS011;4524;51.364;5.448;2022-11-18T10:34:27;7.57;;;3.40;;
8978;SDS011;4524;51.364;5.448;2022-11-18T10:36:58;5.97;;;3.20;;
8978;SDS011;4524;51.364;5.448;2022-11-18T10:39:28;6.50;;;3.20;;
8978;SDS011;4524;51.364;5.448;2022-11-18T10:41:58;5.47;;;3.10;;
8978;SDS011;4524;51.364;5.448;2022-11-18T10:44:32;7.20;;;3.63;;
8978;SDS011;4524;51.364;5.448;2022-11-18T10:47:16;5.70;;;3.20;;
8978;SDS011;4524;51.364;5.448;2022-11-18T10:49:49;6.53;;;3.50;;
8978;SDS011;4524;51.364;5.448;2022-11-18T10:52:19;6.80;;;3.43;;
8978;SDS011;4524;51.364;5.448;2022-11-18T10:57:45;8.17;;;3.37;;
8978;SDS011;4524;51.364;5.448;2022-11-18T11:03:19;6.30;;;3.20;;
8978;SDS011;4524;51.364;5.448;2022-11-18T11:08:47;7.13;;;3.10;;
8978;SDS011;4524;51.364;5.448;2022-11-18T11:11:20;6.23;;;3.50;;
8978;SDS011;4524;51.364;5.448;2022-11-18T11:13:55;8.00;;;3.20;;
8978;SDS011;4524;51.364;5.448;2022-11-18T11:16:29;8.10;;;3.20;;
8978;SDS011;4524;51.364;5.448;2022-11-18T11:19:01;6.20;;;3.27;;
8978;SDS011;4524;51.364;5.448;2022-11-18T11:21:30;7.07;;;3.30;;
8978;SDS011;4524;51.364;5.448;2022-11-18T11:23:59;7.80;;;2.93;;
8978;SDS011;4524;51.364;5.448;2022-11-18T11:26:31;6.53;;;3.00;;
8978;SDS011;4524;51.364;5.448;2022-11-18T11:29:33;6.37;;;3.43;;
8978;SDS011;4524;51.364;5.448;2022-11-18T11:32:17;6.17;;;3.13;;
8978;SDS011;4524;51.364;5.448;2022-11-18T11:34:54;7.50;;;2.90;;
8978;SDS011;4524;51.364;5.448;2022-11-18T11:37:32;6.23;;;3.40;;
8978;SDS011;4524;51.364;5.448;2022-11-18T11:40:16;5.70;;;3.40;;
8978;SDS011;4524;51.364;5.448;2022-11-18T11:42:54;7.57;;;3.13;;
8978;SDS011;4524;51.364;5.448;2022-11-18T11:45:32;5.63;;;3.20;;
8978;SDS011;4524;51.364;5.448;2022-11-18T11:48:20;5.77;;;3.10;;
8978;SDS011;4524;51.364;5.448;2022-11-18T11:50:57;6.13;;;3.47;;
8978;SDS011;4524;51.364;5.448;2022-11-18T11:53:50;10.83;;;3.70;;
8978;SDS011;4524;51.364;5.448;2022-11-18T11:56:31;8.10;;;3.83;;
8978;SDS011;4524;51.364;5.448;2022-11-18T11:59:17;7.40;;;3.50;;
8978;SDS011;4524;51.364;5.448;2022-11-18T12:01:57;6.77;;;3.07;;
8978;SDS011;4524;51.364;5.448;2022-11-18T12:04:39;8.17;;;3.50;;
8978;SDS011;4524;51.364;5.448;2022-11-18T12:07:13;7.80;;;3.77;;
8978;SDS011;4524;51.364;5.448;2022-11-18T12:09:55;7.60;;;3.20;;
8978;SDS011;4524;51.364;5.448;2022-11-18T12:12:45;8.03;;;2.93;;
8978;SDS011;4524;51.364;5.448;2022-11-18T12:15:24;7.27;;;3.20;;
8978;SDS011;4524;51.364;5.448;2022-11-18T12:18:02;14.57;;;3.47;;
8978;SDS011;4524;51.364;5.448;2022-11-18T12:20:38;8.23;;;2.93;;
8978;SDS011;4524;51.364;5.448;2022-11-18T12:23:11;6.83;;;2.50;;
8978;SDS011;4524;51.364;5.448;2022-11-18T12:25:51;7.87;;;3.10;;
8978;SDS011;4524;51.364;5.448;2022-11-18T12:28:23;8.90;;;3.10;;
8978;SDS011;4524;51.364;5.448;2022-11-18T12:34:01;5.90;;;2.73;;
8978;SDS011;4524;51.364;5.448;2022-11-18T12:36:33;6.43;;;2.80;;
8978;SDS011;4524;51.364;5.448;2022-11-18T12:42:03;8.40;;;2.80;;
8978;SDS011;4524;51.364;5.448;2022-11-18T12:44:51;7.33;;;2.90;;
8978;SDS011;4524;51.364;5.448;2022-11-18T12:50:20;12.37;;;3.17;;
8978;SDS011;4524;51.364;5.448;2022-11-18T12:53:26;8.07;;;2.90;;
8978;SDS011;4524;51.364;5.448;2022-11-18T12:55:57;9.03;;;2.90;;
8978;SDS011;4524;51.364;5.448;2022-11-18T12:58:25;8.50;;;3.13;;
8978;SDS011;4524;51.364;5.448;2022-11-18T13:01:05;10.07;;;3.30;;
8978;SDS011;4524;51.364;5.448;2022-11-18T13:03:34;8.23;;;2.90;;
8978;SDS011;4524;51.364;5.448;2022-11-18T13:06:04;10.70;;;3.47;;
8978;SDS011;4524;51.364;5.448;2022-11-18T13:08:39;7.37;;;3.10;;
8978;SDS011;4524;51.364;5.448;2022-11-18T13:11:08;7.73;;;3.30;;
8978;SDS011;4524;51.364;5.448;2022-11-18T13:13:59;13.57;;;3.73;;
8978;SDS011;4524;51.364;5.448;2022-11-18T13:16:47;9.37;;;3.30;;
8978;SDS011;4524;51.364;5.448;2022-11-18T13:19:34;9.73;;;3.60;;
8978;SDS011;4524;51.364;5.448;2022-11-18T13:22:02;8.67;;;3.47;;
8978;SDS011;4524;51.364;5.448;2022-11-18T13:24:48;12.03;;;3.90;;
8978;SDS011;4524;51.364;5.448;2022-11-18T13:27:21;8.20;;;3.43;;
8978;SDS011;4524;51.364;5.448;2022-11-18T13:29:58;10.67;;;3.53;;
8978;SDS011;4524;51.364;5.448;2022-11-18T13:32:31;8.10;;;3.33;;
8978;SDS011;4524;51.364;5.448;2022-11-18T13:35:03;7.10;;;3.67;;
8978;SDS011;4524;51.364;5.448;2022-11-18T13:37:46;8.67;;;3.47;;
8978;SDS011;4524;51.364;5.448;2022-11-18T13:40:20;10.07;;;4.07;;
8978;SDS011;4524;51.364;5.448;2022-11-18T13:42:50;9.20;;;3.30;;
8978;SDS011;4524;51.364;5.448;2022-11-18T13:45:18;7.77;;;3.30;;
8978;SDS011;4524;51.364;5.448;2022-11-18T13:47:51;9.20;;;3.20;;
8978;SDS011;4524;51.364;5.448;2022-11-18T13:50:21;8.17;;;2.83;;
8978;SDS011;4524;51.364;5.448;2022-11-18T13:52:55;5.17;;;2.77;;
8978;SDS011;4524;51.364;5.448;2022-11-18T13:55:30;6.17;;;2.80;;
8978;SDS011;4524;51.364;5.448;2022-11-18T13:58:03;8.87;;;3.20;;
8978;SDS011;4524;51.364;5.448;2022-11-18T14:00:53;7.80;;;2.80;;
8978;SDS011;4524;51.364;5.448;2022-11-18T14:03:24;8.23;;;3.10;;
8978;SDS011;4524;51.364;5.448;2022-11-18T14:05:56;9.97;;;3.50;;
8978;SDS011;4524;51.364;5.448;2022-11-18T14:08:26;7.07;;;3.43;;
8978;SDS011;4524;51.364;5.448;2022-11-18T14:10:55;7.60;;;3.43;;
8978;SDS011;4524;51.364;5.448;2022-11-18T14:13:25;9.27;;;3.70;;
8978;SDS011;4524;51.364;5.448;2022-11-18T14:15:55;8.27;;;4.13;;
8978;SDS011;4524;51.364;5.448;2022-11-18T14:18:28;7.67;;;3.40;;
8978;SDS011;4524;51.364;5.448;2022-11-18T14:20:58;5.10;;;3.50;;
8978;SDS011;4524;51.364;5.448;2022-11-18T14:23:28;7.03;;;3.23;;
8978;SDS011;4524;51.364;5.448;2022-11-18T14:25:58;4.80;;;3.27;;
8978;SDS011;4524;51.364;5.448;2022-11-18T14:28:28;7.60;;;3.43;;
8978;SDS011;4524;51.364;5.448;2022-11-18T14:31:00;4.23;;;3.00;;
8978;SDS011;4524;51.364;5.448;2022-11-18T14:33:34;4.37;;;2.70;;
8978;SDS011;4524;51.364;5.448;2022-11-18T14:36:08;6.53;;;2.80;;
8978;SDS011;4524;51.364;5.448;2022-11-18T14:38:42;6.33;;;3.30;;
8978;SDS011;4524;51.364;5.448;2022-11-18T14:41:32;5.23;;;3.00;;
8978;SDS011;4524;51.364;5.448;2022-11-18T14:44:15;6.70;;;3.10;;
8978;SDS011;4524;51.364;5.448;2022-11-18T14:46:45;6.63;;;3.27;;
8978;SDS011;4524;51.364;5.448;2022-11-18T14:49:19;8.37;;;3.63;;
8978;SDS011;4524;51.364;5.448;2022-11-18T14:51:49;7.70;;;3.47;;
8978;SDS011;4524;51.364;5.448;2022-11-18T14:54:18;5.80;;;3.43;;
8978;SDS011;4524;51.364;5.448;2022-11-18T14:56:53;6.97;;;3.90;;
8978;SDS011;4524;51.364;5.448;2022-11-18T14:59:23;8.50;;;3.70;;
8978;SDS011;4524;51.364;5.448;2022-11-18T15:01:51;6.83;;;3.70;;
8978;SDS011;4524;51.364;5.448;2022-11-18T15:04:20;9.03;;;4.33;;
8978;SDS011;4524;51.364;5.448;2022-11-18T15:06:48;11.63;;;4.37;;
8978;SDS011;4524;51.364;5.448;2022-11-18T15:09:16;5.73;;;4.07;;
8978;SDS011;4524;51.364;5.448;2022-11-18T15:11:44;8.47;;;4.20;;
8978;SDS011;4524;51.364;5.448;2022-11-18T15:14:13;8.53;;;4.70;;
8978;SDS011;4524;51.364;5.448;2022-11-18T15:16:41;12.80;;;5.07;;
8978;SDS011;4524;51.364;5.448;2022-11-18T15:19:11;7.63;;;4.47;;
8978;SDS011;4524;51.364;5.448;2022-11-18T15:21:42;7.87;;;4.50;;
8978;SDS011;4524;51.364;5.448;2022-11-18T15:24:11;8.67;;;5.43;;
8978;SDS011;4524;51.364;5.448;2022-11-18T15:26:39;11.77;;;4.97;;
8978;SDS011;4524;51.364;5.448;2022-11-18T15:29:11;9.83;;;4.77;;
8978;SDS011;4524;51.364;5.448;2022-11-18T15:31:42;8.00;;;4.30;;
8978;SDS011;4524;51.364;5.448;2022-11-18T15:34:10;9.30;;;4.30;;
8978;SDS011;4524;51.364;5.448;2022-11-18T15:36:38;9.53;;;4.50;;
8978;SDS011;4524;51.364;5.448;2022-11-18T15:39:07;8.93;;;5.33;;
8978;SDS011;4524;51.364;5.448;2022-11-18T15:41:36;7.60;;;4.30;;
8978;SDS011;4524;51.364;5.448;2022-11-18T15:44:04;10.27;;;5.17;;
8978;SDS011;4524;51.364;5.448;2022-11-18T15:46:33;8.63;;;4.80;;
8978;SDS011;4524;51.364;5.448;2022-11-18T15:49:00;10.97;;;4.90;;
8978;SDS011;4524;51.364;5.448;2022-11-18T15:51:29;5.93;;;4.07;;
8978;SDS011;4524;51.364;5.448;2022-11-18T15:53:58;8.10;;;5.20;;
8978;SDS011;4524;51.364;5.448;2022-11-18T15:56:28;10.47;;;6.80;;
8978;SDS011;4524;51.364;5.448;2022-11-18T15:58:58;7.30;;;4.73;;
8978;SDS011;4524;51.364;5.448;2022-11-18T16:01:28;8.67;;;5.10;;
8978;SDS011;4524;51.364;5.448;2022-11-18T16:03:57;10.20;;;5.87;;